sensor_id;sensor_type;location;lat;lon;timestamp;pressure;altitude;pressure_sealevel;temperature;humidity
61384;BME280;63511;49.346;8.798;2022-09-30T00:02:27;99343.72;;;11.43;88.47
61384;BME280;63511;49.346;8.798;2022-09-30T00:04:52;99345.56;;;11.30;90.62
61384;BME280;63511;49.346;8.798;2022-09-30T00:07:20;99350.88;;;11.52;89.11
61384;BME280;63511;49.346;8.798;2022-09-30T00:09:45;99355.59;;;11.44;90.07
61384;BME280;63511;49.346;8.798;2022-09-30T00:12:12;99360.44;;;11.75;88.32
61384;BME280;63511;49.346;8.798;2022-09-30T00:14:37;99359.00;;;11.80;88.06
61384;BME280;63511;49.346;8.798;2022-09-30T00:17:02;99359.78;;;11.79;88.21
61384;BME280;63511;49.346;8.798;2022-09-30T00:19:28;99360.66;;;11.80;87.99
61384;BME280;63511;49.346;8.798;2022-09-30T00:21:53;99355.03;;;11.85;88.00
61384;BME280;63511;49.346;8.798;2022-09-30T00:24:23;99357.88;;;11.93;87.31
61384;BME280;63511;49.346;8.798;2022-09-30T00:26:50;99356.22;;;11.93;87.83
61384;BME280;63511;49.346;8.798;2022-09-30T00:29:18;99352.13;;;11.96;86.94
61384;BME280;63511;49.346;8.798;2022-09-30T00:31:43;99364.03;;;11.45;89.68
61384;BME280;63511;49.346;8.798;2022-09-30T00:34:13;99360.13;;;11.34;89.22
61384;BME280;63511;49.346;8.798;2022-09-30T00:36:47;99361.38;;;11.60;87.97
61384;BME280;63511;49.346;8.798;2022-09-30T00:39:16;99361.25;;;11.74;87.70
61384;BME280;63511;49.346;8.798;2022-09-30T00:41:44;99357.59;;;11.69;87.84
61384;BME280;63511;49.346;8.798;2022-09-30T00:47:35;99353.28;;;11.15;89.09
61384;BME280;63511;49.346;8.798;2022-09-30T00:50:28;99360.69;;;11.28;88.54
61384;BME280;63511;49.346;8.798;2022-09-30T00:53:02;99359.59;;;11.41;87.39
61384;BME280;63511;49.346;8.798;2022-09-30T00:55:40;99358.47;;;11.34;88.12
61384;BME280;63511;49.346;8.798;2022-09-30T00:58:10;99352.53;;;11.34;87.68
61384;BME280;63511;49.346;8.798;2022-09-30T01:00:41;99359.09;;;11.30;87.46
61384;BME280;63511;49.346;8.798;2022-09-30T01:03:06;99368.56;;;11.34;87.26
61384;BME280;63511;49.346;8.798;2022-09-30T01:05:32;99369.41;;;11.35;87.82
61384;BME280;63511;49.346;8.798;2022-09-30T01:08:01;99367.31;;;11.26;86.91
61384;BME280;63511;49.346;8.798;2022-09-30T01:10:30;99367.22;;;11.25;87.38
61384;BME280;63511;49.346;8.798;2022-09-30T01:12:56;99368.41;;;11.14;87.91
61384;BME280;63511;49.346;8.798;2022-09-30T01:15:38;99359.56;;;11.05;86.87
61384;BME280;63511;49.346;8.798;2022-09-30T01:18:11;99368.75;;;11.03;87.74
61384;BME280;63511;49.346;8.798;2022-09-30T01:20:50;99367.00;;;11.02;88.47
61384;BME280;63511;49.346;8.798;2022-09-30T01:24:00;99365.09;;;10.98;88.06
61384;BME280;63511;49.346;8.798;2022-09-30T01:27:04;99373.47;;;10.97;88.74
61384;BME280;63511;49.346;8.798;2022-09-30T01:32:40;99376.78;;;10.96;88.32
61384;BME280;63511;49.346;8.798;2022-09-30T01:37:54;99383.75;;;10.84;89.96
61384;BME280;63511;49.346;8.798;2022-09-30T01:41:29;99377.03;;;10.85;89.63
61384;BME280;63511;49.346;8.798;2022-09-30T01:51:36;99381.47;;;10.73;89.65
61384;BME280;63511;49.346;8.798;2022-09-30T01:54:50;99379.00;;;10.90;89.14
61384;BME280;63511;49.346;8.798;2022-09-30T01:57:02;99382.69;;;11.13;88.72
61384;BME280;63511;49.346;8.798;2022-09-30T01:59:36;99383.69;;;11.17;88.78
61384;BME280;63511;49.346;8.798;2022-09-30T02:02:12;99387.31;;;11.22;87.90
61384;BME280;63511;49.346;8.798;2022-09-30T02:04:45;99385.78;;;11.25;86.96
61384;BME280;63511;49.346;8.798;2022-09-30T02:07:19;99394.03;;;11.21;87.17
61384;BME280;63511;49.346;8.798;2022-09-30T02:10:02;99407.41;;;11.19;88.37
61384;BME280;63511;49.346;8.798;2022-09-30T02:12:33;99411.56;;;11.18;87.75
61384;BME280;63511;49.346;8.798;2022-09-30T02:15:05;99406.75;;;11.23;87.92
61384;BME280;63511;49.346;8.798;2022-09-30T02:17:44;99415.25;;;11.25;87.13
61384;BME280;63511;49.346;8.798;2022-09-30T02:23:05;99417.59;;;11.38;87.91
61384;BME280;63511;49.346;8.798;2022-09-30T02:25:36;99414.50;;;11.43;87.89
61384;BME280;63511;49.346;8.798;2022-09-30T02:28:06;99411.53;;;11.34;87.35
61384;BME280;63511;49.346;8.798;2022-09-30T02:30:38;99416.66;;;11.02;88.99
61384;BME280;63511;49.346;8.798;2022-09-30T02:33:22;99427.59;;;11.19;89.23
61384;BME280;63511;49.346;8.798;2022-09-30T02:35:56;99423.50;;;11.04;89.50
61384;BME280;63511;49.346;8.798;2022-09-30T02:38:30;99427.59;;;11.19;89.28
61384;BME280;63511;49.346;8.798;2022-09-30T02:41:12;99422.09;;;11.43;89.06
61384;BME280;63511;49.346;8.798;2022-09-30T02:43:41;99426.88;;;11.55;87.87
61384;BME280;63511;49.346;8.798;2022-09-30T02:49:00;99434.81;;;11.45;88.44
61384;BME280;63511;49.346;8.798;2022-09-30T02:51:52;99433.88;;;11.61;87.52
61384;BME280;63511;49.346;8.798;2022-09-30T02:54:35;99427.22;;;11.45;87.68
61384;BME280;63511;49.346;8.798;2022-09-30T02:57:16;99426.63;;;11.50;87.93
61384;BME280;63511;49.346;8.798;2022-09-30T02:59:45;99430.03;;;11.51;88.34
61384;BME280;63511;49.346;8.798;2022-09-30T03:02:14;99430.06;;;11.35;87.97
61384;BME280;63511;49.346;8.798;2022-09-30T03:04:44;99433.69;;;11.06;89.33
61384;BME280;63511;49.346;8.798;2022-09-30T03:07:10;99440.16;;;11.01;89.58
61384;BME280;63511;49.346;8.798;2022-09-30T03:09:39;99436.84;;;11.18;89.88
61384;BME280;63511;49.346;8.798;2022-09-30T03:12:11;99440.34;;;11.38;88.63
61384;BME280;63511;49.346;8.798;2022-09-30T03:17:26;99444.69;;;11.40;87.66
61384;BME280;63511;49.346;8.798;2022-09-30T03:22:50;99449.13;;;11.44;87.64
61384;BME280;63511;49.346;8.798;2022-09-30T03:30:39;99446.97;;;11.36;88.66
61384;BME280;63511;49.346;8.798;2022-09-30T03:35:47;99443.28;;;11.63;87.76
61384;BME280;63511;49.346;8.798;2022-09-30T03:41:15;99447.97;;;11.05;88.68
61384;BME280;63511;49.346;8.798;2022-09-30T03:49:00;99444.66;;;11.06;89.05
61384;BME280;63511;49.346;8.798;2022-09-30T03:51:27;99444.03;;;11.11;88.41
61384;BME280;63511;49.346;8.798;2022-09-30T03:53:54;99446.31;;;11.06;89.17
61384;BME280;63511;49.346;8.798;2022-09-30T03:56:24;99458.25;;;11.08;88.41
61384;BME280;63511;49.346;8.798;2022-09-30T03:58:52;99455.97;;;11.13;88.95
61384;BME280;63511;49.346;8.798;2022-09-30T04:01:20;99463.91;;;11.21;88.45
61384;BME280;63511;49.346;8.798;2022-09-30T04:03:49;99466.84;;;11.28;88.81
61384;BME280;63511;49.346;8.798;2022-09-30T04:06:19;99466.91;;;11.30;87.48
61384;BME280;63511;49.346;8.798;2022-09-30T04:08:45;99466.66;;;11.25;88.21
61384;BME280;63511;49.346;8.798;2022-09-30T04:11:11;99463.91;;;11.21;87.18
61384;BME280;63511;49.346;8.798;2022-09-30T04:13:37;99463.78;;;11.18;87.53
61384;BME280;63511;49.346;8.798;2022-09-30T04:16:03;99468.50;;;10.95;88.06
61384;BME280;63511;49.346;8.798;2022-09-30T04:18:32;99477.19;;;11.00;87.98
61384;BME280;63511;49.346;8.798;2022-09-30T04:21:03;99475.63;;;11.02;88.57
61384;BME280;63511;49.346;8.798;2022-09-30T04:23:36;99473.81;;;11.00;87.32
61384;BME280;63511;49.346;8.798;2022-09-30T04:26:01;99476.88;;;10.94;87.95
61384;BME280;63511;49.346;8.798;2022-09-30T04:28:27;99489.03;;;11.01;87.72
61384;BME280;63511;49.346;8.798;2022-09-30T04:30:58;99496.22;;;10.94;87.37
61384;BME280;63511;49.346;8.798;2022-09-30T04:33:26;99492.84;;;10.77;87.40
61384;BME280;63511;49.346;8.798;2022-09-30T04:35:56;99487.84;;;10.79;86.61
61384;BME280;63511;49.346;8.798;2022-09-30T04:38:22;99491.06;;;10.60;86.96
61384;BME280;63511;49.346;8.798;2022-09-30T04:40:52;99490.59;;;10.67;87.36
61384;BME280;63511;49.346;8.798;2022-09-30T04:43:22;99503.25;;;10.67;87.42
61384;BME280;63511;49.346;8.798;2022-09-30T04:45:48;99511.75;;;10.69;87.34
61384;BME280;63511;49.346;8.798;2022-09-30T04:48:15;99517.56;;;10.68;87.42
61384;BME280;63511;49.346;8.798;2022-09-30T04:50:41;99525.16;;;10.68;87.34
61384;BME280;63511;49.346;8.798;2022-09-30T04:53:08;99523.09;;;10.61;87.41
61384;BME280;63511;49.346;8.798;2022-09-30T04:55:33;99512.56;;;10.22;88.47
61384;BME280;63511;49.346;8.798;2022-09-30T04:58:01;99518.28;;;10.35;88.72
61384;BME280;63511;49.346;8.798;2022-09-30T05:00:27;99521.41;;;10.45;88.22
61384;BME280;63511;49.346;8.798;2022-09-30T05:02:52;99530.03;;;10.34;86.60
61384;BME280;63511;49.346;8.798;2022-09-30T05:05:22;99523.09;;;10.15;87.88
61384;BME280;63511;49.346;8.798;2022-09-30T05:07:47;99531.81;;;10.20;88.47
61384;BME280;63511;49.346;8.798;2022-09-30T05:10:15;99519.09;;;10.19;87.13
61384;BME280;63511;49.346;8.798;2022-09-30T05:12:41;99525.88;;;9.91;88.04
61384;BME280;63511;49.346;8.798;2022-09-30T05:15:07;99537.28;;;9.99;87.71
61384;BME280;63511;49.346;8.798;2022-09-30T05:17:33;99533.38;;;9.89;88.04
61384;BME280;63511;49.346;8.798;2022-09-30T05:19:59;99537.19;;;9.97;88.45
61384;BME280;63511;49.346;8.798;2022-09-30T05:22:27;99542.59;;;10.03;87.03
61384;BME280;63511;49.346;8.798;2022-09-30T05:24:54;99540.94;;;9.89;87.18
61384;BME280;63511;49.346;8.798;2022-09-30T05:27:23;99548.81;;;9.80;87.29
61384;BME280;63511;49.346;8.798;2022-09-30T05:29:48;99554.84;;;9.25;89.70
61384;BME280;63511;49.346;8.798;2022-09-30T05:32:14;99557.75;;;9.18;91.17
61384;BME280;63511;49.346;8.798;2022-09-30T05:34:39;99548.28;;;9.42;90.00
61384;BME280;63511;49.346;8.798;2022-09-30T05:37:05;99548.97;;;9.54;88.95
61384;BME280;63511;49.346;8.798;2022-09-30T05:39:30;99557.88;;;9.62;88.01
61384;BME280;63511;49.346;8.798;2022-09-30T05:41:57;99555.97;;;9.58;87.38
61384;BME280;63511;49.346;8.798;2022-09-30T05:44:24;99561.81;;;9.44;86.83
61384;BME280;63511;49.346;8.798;2022-09-30T05:46:50;99567.94;;;9.48;87.70
61384;BME280;63511;49.346;8.798;2022-09-30T05:49:18;99570.34;;;9.46;88.85
61384;BME280;63511;49.346;8.798;2022-09-30T05:51:43;99575.00;;;9.25;90.56
61384;BME280;63511;49.346;8.798;2022-09-30T05:54:11;99573.28;;;9.39;90.25
61384;BME280;63511;49.346;8.798;2022-09-30T05:56:36;99574.34;;;9.43;89.80
61384;BME280;63511;49.346;8.798;2022-09-30T05:59:09;99579.72;;;9.49;88.75
61384;BME280;63511;49.346;8.798;2022-09-30T06:01:37;99583.16;;;9.64;88.89
61384;BME280;63511;49.346;8.798;2022-09-30T06:04:02;99583.25;;;9.65;89.43
61384;BME280;63511;49.346;8.798;2022-09-30T06:06:27;99586.03;;;9.70;88.78
61384;BME280;63511;49.346;8.798;2022-09-30T06:08:56;99581.25;;;9.74;88.04
61384;BME280;63511;49.346;8.798;2022-09-30T06:11:22;99593.03;;;9.46;88.05
61384;BME280;63511;49.346;8.798;2022-09-30T06:13:49;99599.31;;;9.53;88.20
61384;BME280;63511;49.346;8.798;2022-09-30T06:16:15;99614.34;;;9.51;87.93
61384;BME280;63511;49.346;8.798;2022-09-30T06:18:44;99614.13;;;9.48;89.10
61384;BME280;63511;49.346;8.798;2022-09-30T06:21:14;99613.06;;;9.58;89.24
61384;BME280;63511;49.346;8.798;2022-09-30T06:23:43;99607.91;;;9.84;88.58
61384;BME280;63511;49.346;8.798;2022-09-30T06:26:11;99609.81;;;9.88;88.05
61384;BME280;63511;49.346;8.798;2022-09-30T06:28:39;99609.34;;;9.95;88.73
61384;BME280;63511;49.346;8.798;2022-09-30T06:31:07;99623.97;;;10.01;88.99
61384;BME280;63511;49.346;8.798;2022-09-30T06:33:37;99628.59;;;10.08;88.73
61384;BME280;63511;49.346;8.798;2022-09-30T06:36:06;99628.81;;;10.26;88.28
61384;BME280;63511;49.346;8.798;2022-09-30T06:38:35;99640.56;;;10.40;88.05
61384;BME280;63511;49.346;8.798;2022-09-30T06:41:05;99637.50;;;10.45;88.34
61384;BME280;63511;49.346;8.798;2022-09-30T06:43:31;99641.13;;;10.65;87.63
61384;BME280;63511;49.346;8.798;2022-09-30T06:45:56;99651.75;;;10.74;88.23
61384;BME280;63511;49.346;8.798;2022-09-30T06:48:22;99647.03;;;10.80;88.26
61384;BME280;63511;49.346;8.798;2022-09-30T06:50:48;99647.38;;;10.86;88.37
61384;BME280;63511;49.346;8.798;2022-09-30T06:53:13;99659.75;;;10.82;88.49
61384;BME280;63511;49.346;8.798;2022-09-30T06:55:41;99663.41;;;10.87;88.74
61384;BME280;63511;49.346;8.798;2022-09-30T06:58:12;99656.66;;;11.02;88.68
61384;BME280;63511;49.346;8.798;2022-09-30T07:00:38;99653.41;;;11.04;88.51
61384;BME280;63511;49.346;8.798;2022-09-30T07:03:04;99650.44;;;11.12;89.03
61384;BME280;63511;49.346;8.798;2022-09-30T07:05:36;99642.03;;;10.96;88.67
61384;BME280;63511;49.346;8.798;2022-09-30T07:08:01;99644.38;;;10.93;90.27
61384;BME280;63511;49.346;8.798;2022-09-30T07:10:27;99640.78;;;11.04;90.01
61384;BME280;63511;49.346;8.798;2022-09-30T07:12:52;99640.88;;;11.06;90.37
61384;BME280;63511;49.346;8.798;2022-09-30T07:15:18;99649.03;;;11.17;89.58
61384;BME280;63511;49.346;8.798;2022-09-30T07:17:53;99645.63;;;11.16;90.87
61384;BME280;63511;49.346;8.798;2022-09-30T07:20:23;99648.59;;;11.09;89.23
61384;BME280;63511;49.346;8.798;2022-09-30T07:22:48;99650.94;;;10.90;89.72
61384;BME280;63511;49.346;8.798;2022-09-30T07:25:14;99661.66;;;11.17;89.26
61384;BME280;63511;49.346;8.798;2022-09-30T07:27:39;99654.91;;;11.48;87.30
61384;BME280;63511;49.346;8.798;2022-09-30T07:30:08;99664.00;;;11.44;87.77
61384;BME280;63511;49.346;8.798;2022-09-30T07:32:35;99666.38;;;11.58;87.26
61384;BME280;63511;49.346;8.798;2022-09-30T07:35:01;99660.47;;;11.73;86.44
61384;BME280;63511;49.346;8.798;2022-09-30T07:37:29;99663.38;;;11.97;86.26
61384;BME280;63511;49.346;8.798;2022-09-30T07:40:04;99666.50;;;11.91;85.41
61384;BME280;63511;49.346;8.798;2022-09-30T07:42:32;99672.00;;;12.17;84.91
61384;BME280;63511;49.346;8.798;2022-09-30T07:44:57;99677.53;;;12.10;84.72
61384;BME280;63511;49.346;8.798;2022-09-30T07:47:27;99678.50;;;12.29;84.00
61384;BME280;63511;49.346;8.798;2022-09-30T07:49:53;99678.00;;;12.53;82.79
61384;BME280;63511;49.346;8.798;2022-09-30T07:52:18;99676.78;;;12.62;83.10
61384;BME280;63511;49.346;8.798;2022-09-30T07:54:43;99684.38;;;12.62;83.85
61384;BME280;63511;49.346;8.798;2022-09-30T07:57:11;99690.03;;;12.74;83.90
61384;BME280;63511;49.346;8.798;2022-09-30T07:59:38;99685.97;;;12.78;83.38
61384;BME280;63511;49.346;8.798;2022-09-30T08:02:05;99692.06;;;12.82;83.71
61384;BME280;63511;49.346;8.798;2022-09-30T08:04:31;99688.44;;;13.12;83.38
61384;BME280;63511;49.346;8.798;2022-09-30T08:06:58;99697.44;;;13.23;82.53
61384;BME280;63511;49.346;8.798;2022-09-30T08:09:25;99702.66;;;13.26;82.51
61384;BME280;63511;49.346;8.798;2022-09-30T08:11:51;99701.91;;;13.29;82.06
61384;BME280;63511;49.346;8.798;2022-09-30T08:14:24;99700.84;;;13.24;81.99
61384;BME280;63511;49.346;8.798;2022-09-30T08:16:51;99715.19;;;13.23;81.87
61384;BME280;63511;49.346;8.798;2022-09-30T08:19:21;99703.94;;;13.18;81.84
61384;BME280;63511;49.346;8.798;2022-09-30T08:21:47;99710.09;;;13.23;82.81
61384;BME280;63511;49.346;8.798;2022-09-30T08:24:13;99717.63;;;13.04;81.83
61384;BME280;63511;49.346;8.798;2022-09-30T08:26:39;99720.28;;;13.07;81.92
61384;BME280;63511;49.346;8.798;2022-09-30T08:29:06;99716.09;;;13.07;81.97
61384;BME280;63511;49.346;8.798;2022-09-30T08:31:32;99711.75;;;13.23;80.89
61384;BME280;63511;49.346;8.798;2022-09-30T08:34:00;99717.41;;;13.17;81.25
61384;BME280;63511;49.346;8.798;2022-09-30T08:36:27;99723.47;;;13.38;80.64
61384;BME280;63511;49.346;8.798;2022-09-30T08:38:55;99727.19;;;13.45;80.21
61384;BME280;63511;49.346;8.798;2022-09-30T08:49:41;99729.63;;;13.99;80.50
61384;BME280;63511;49.346;8.798;2022-09-30T08:52:23;99732.44;;;14.25;79.82
61384;BME280;63511;49.346;8.798;2022-09-30T08:54:52;99727.38;;;14.44;79.08
61384;BME280;63511;49.346;8.798;2022-09-30T08:57:19;99732.09;;;14.56;78.75
61384;BME280;63511;49.346;8.798;2022-09-30T08:59:54;99741.13;;;14.11;78.82
61384;BME280;63511;49.346;8.798;2022-09-30T09:02:24;99748.81;;;14.51;79.01
61384;BME280;63511;49.346;8.798;2022-09-30T09:04:53;99749.47;;;14.86;78.61
61384;BME280;63511;49.346;8.798;2022-09-30T09:12:47;99746.50;;;15.62;75.26
61384;BME280;63511;49.346;8.798;2022-09-30T09:18:45;99749.22;;;16.12;73.67
61384;BME280;63511;49.346;8.798;2022-09-30T09:23:45;99744.84;;;15.85;74.73
61384;BME280;63511;49.346;8.798;2022-09-30T09:26:13;99735.09;;;16.22;73.17
61384;BME280;63511;49.346;8.798;2022-09-30T09:31:32;99741.56;;;15.89;72.81
61384;BME280;63511;49.346;8.798;2022-09-30T09:34:00;99737.34;;;16.37;72.98
61384;BME280;63511;49.346;8.798;2022-09-30T09:47:49;99738.31;;;17.45;66.28
61384;BME280;63511;49.346;8.798;2022-09-30T09:50:20;99732.97;;;17.64;66.03
61384;BME280;63511;49.346;8.798;2022-09-30T09:55:39;99719.66;;;17.47;67.97
61384;BME280;63511;49.346;8.798;2022-09-30T09:58:14;99719.00;;;17.24;68.05
61384;BME280;63511;49.346;8.798;2022-09-30T10:00:40;99715.72;;;17.02;66.96
61384;BME280;63511;49.346;8.798;2022-09-30T10:03:16;99716.72;;;16.80;69.19
61384;BME280;63511;49.346;8.798;2022-09-30T10:06:08;99723.81;;;16.88;68.82
61384;BME280;63511;49.346;8.798;2022-09-30T10:08:52;99721.47;;;16.69;69.42
61384;BME280;63511;49.346;8.798;2022-09-30T10:11:24;99720.72;;;16.72;69.60
61384;BME280;63511;49.346;8.798;2022-09-30T10:13:59;99716.47;;;16.48;69.33
61384;BME280;63511;49.346;8.798;2022-09-30T10:18:57;99719.41;;;16.84;70.48
61384;BME280;63511;49.346;8.798;2022-09-30T10:21:27;99720.72;;;16.98;69.75
61384;BME280;63511;49.346;8.798;2022-09-30T10:23:52;99719.06;;;17.00;69.94
61384;BME280;63511;49.346;8.798;2022-09-30T10:26:26;99713.81;;;17.23;70.78
61384;BME280;63511;49.346;8.798;2022-09-30T10:31:31;99727.09;;;16.11;70.15
61384;BME280;63511;49.346;8.798;2022-09-30T10:36:34;99718.78;;;16.41;69.53
61384;BME280;63511;49.346;8.798;2022-09-30T10:41:47;99719.97;;;16.50;68.67
61384;BME280;63511;49.346;8.798;2022-09-30T10:44:19;99712.94;;;16.69;70.21
61384;BME280;63511;49.346;8.798;2022-09-30T10:46:47;99718.16;;;16.48;70.04
61384;BME280;63511;49.346;8.798;2022-09-30T10:51:52;99721.19;;;16.36;68.93
61384;BME280;63511;49.346;8.798;2022-09-30T10:57:19;99713.81;;;16.69;69.02
61384;BME280;63511;49.346;8.798;2022-09-30T10:59:45;99717.25;;;16.96;68.96
61384;BME280;63511;49.346;8.798;2022-09-30T11:02:28;99721.75;;;17.04;69.32
61384;BME280;63511;49.346;8.798;2022-09-30T11:05:03;99722.13;;;16.89;68.25
61384;BME280;63511;49.346;8.798;2022-09-30T11:07:41;99729.94;;;16.93;66.94
61384;BME280;63511;49.346;8.798;2022-09-30T11:13:29;99724.56;;;17.41;65.79
61384;BME280;63511;49.346;8.798;2022-09-30T11:18:42;99726.63;;;17.53;66.70
61384;BME280;63511;49.346;8.798;2022-09-30T11:27:00;99722.97;;;17.71;63.78
61384;BME280;63511;49.346;8.798;2022-09-30T11:33:26;99717.69;;;17.95;63.73
61384;BME280;63511;49.346;8.798;2022-09-30T11:38:09;99725.41;;;17.97;63.04
61384;BME280;63511;49.346;8.798;2022-09-30T11:46:41;99722.41;;;17.53;62.27
61384;BME280;63511;49.346;8.798;2022-09-30T11:52:07;99730.69;;;18.04;64.15
61384;BME280;63511;49.346;8.798;2022-09-30T11:57:30;99725.28;;;18.23;63.95
61384;BME280;63511;49.346;8.798;2022-09-30T12:00:13;99710.88;;;18.27;65.47
61384;BME280;63511;49.346;8.798;2022-09-30T12:02:43;99707.09;;;18.44;64.63
61384;BME280;63511;49.346;8.798;2022-09-30T12:05:16;99701.13;;;18.45;64.35
61384;BME280;63511;49.346;8.798;2022-09-30T12:07:51;99703.88;;;18.53;63.05
61384;BME280;63511;49.346;8.798;2022-09-30T12:12:46;99703.00;;;18.52;59.59
61384;BME280;63511;49.346;8.798;2022-09-30T12:15:17;99700.69;;;18.60;59.97
61384;BME280;63511;49.346;8.798;2022-09-30T12:17:50;99706.78;;;18.65;58.33
61384;BME280;63511;49.346;8.798;2022-09-30T12:20:24;99703.59;;;18.74;59.65
61384;BME280;63511;49.346;8.798;2022-09-30T12:22:54;99711.75;;;18.60;57.46
61384;BME280;63511;49.346;8.798;2022-09-30T12:25:38;99714.19;;;18.23;56.70
61384;BME280;63511;49.346;8.798;2022-09-30T12:31:02;99713.25;;;18.52;59.83
61384;BME280;63511;49.346;8.798;2022-09-30T12:33:43;99714.38;;;18.62;59.72
61384;BME280;63511;49.346;8.798;2022-09-30T12:42:14;99723.03;;;18.67;60.30
61384;BME280;63511;49.346;8.798;2022-09-30T12:48:01;99725.72;;;18.40;58.30
61384;BME280;63511;49.346;8.798;2022-09-30T12:50:32;99728.19;;;18.37;57.55
61384;BME280;63511;49.346;8.798;2022-09-30T12:53:11;99722.25;;;18.70;58.30
61384;BME280;63511;49.346;8.798;2022-09-30T12:55:42;99722.78;;;18.58;55.42
61384;BME280;63511;49.346;8.798;2022-09-30T12:58:20;99726.75;;;18.80;57.50
61384;BME280;63511;49.346;8.798;2022-09-30T13:03:24;99713.09;;;18.79;56.49
61384;BME280;63511;49.346;8.798;2022-09-30T13:05:55;99722.44;;;18.46;55.22
61384;BME280;63511;49.346;8.798;2022-09-30T13:08:25;99719.59;;;18.65;55.06
61384;BME280;63511;49.346;8.798;2022-09-30T13:10:59;99722.38;;;18.76;53.76
61384;BME280;63511;49.346;8.798;2022-09-30T13:13:31;99721.34;;;19.03;54.90
61384;BME280;63511;49.346;8.798;2022-09-30T13:16:01;99726.66;;;19.13;55.61
61384;BME280;63511;49.346;8.798;2022-09-30T13:28:46;99726.22;;;18.58;56.69
61384;BME280;63511;49.346;8.798;2022-09-30T13:31:19;99727.44;;;18.73;56.21
61384;BME280;63511;49.346;8.798;2022-09-30T13:33:46;99732.97;;;18.25;57.20
61384;BME280;63511;49.346;8.798;2022-09-30T13:36:24;99736.69;;;18.05;56.38
61384;BME280;63511;49.346;8.798;2022-09-30T13:52:33;99731.59;;;19.41;57.64
61384;BME280;63511;49.346;8.798;2022-09-30T13:55:06;99736.53;;;19.33;55.17
61384;BME280;63511;49.346;8.798;2022-09-30T14:00:17;99741.75;;;19.38;56.55
61384;BME280;63511;49.346;8.798;2022-09-30T14:12:15;99725.34;;;19.66;54.06
61384;BME280;63511;49.346;8.798;2022-09-30T14:20:16;99716.53;;;19.95;56.72
61384;BME280;63511;49.346;8.798;2022-09-30T14:22:45;99725.59;;;19.78;58.74
61384;BME280;63511;49.346;8.798;2022-09-30T14:25:16;99722.50;;;19.95;57.96
61384;BME280;63511;49.346;8.798;2022-09-30T14:30:25;99718.34;;;19.99;54.65
61384;BME280;63511;49.346;8.798;2022-09-30T14:33:01;99723.91;;;19.78;56.23
61384;BME280;63511;49.346;8.798;2022-09-30T14:35:33;99724.94;;;19.88;56.04
61384;BME280;63511;49.346;8.798;2022-09-30T14:38:05;99708.50;;;19.77;54.13
61384;BME280;63511;49.346;8.798;2022-09-30T14:40:35;99710.78;;;19.63;53.99
61384;BME280;63511;49.346;8.798;2022-09-30T14:43:12;99709.00;;;19.61;54.11
61384;BME280;63511;49.346;8.798;2022-09-30T14:45:42;99707.25;;;19.58;53.16
61384;BME280;63511;49.346;8.798;2022-09-30T14:48:15;99702.97;;;19.57;54.59
61384;BME280;63511;49.346;8.798;2022-09-30T14:50:58;99700.78;;;19.38;55.76
61384;BME280;63511;49.346;8.798;2022-09-30T14:53:25;99704.53;;;19.15;55.00
61384;BME280;63511;49.346;8.798;2022-09-30T14:55:50;99699.38;;;19.13;56.48
61384;BME280;63511;49.346;8.798;2022-09-30T14:58:23;99713.09;;;19.15;56.22
61384;BME280;63511;49.346;8.798;2022-09-30T15:01:06;99715.47;;;19.07;51.27
61384;BME280;63511;49.346;8.798;2022-09-30T15:03:37;99722.03;;;18.96;52.39
61384;BME280;63511;49.346;8.798;2022-09-30T15:06:04;99725.78;;;19.10;53.08
61384;BME280;63511;49.346;8.798;2022-09-30T15:08:30;99720.69;;;18.76;51.45
61384;BME280;63511;49.346;8.798;2022-09-30T15:10:56;99720.19;;;18.23;52.72
61384;BME280;63511;49.346;8.798;2022-09-30T15:13:24;99722.50;;;18.16;52.75
61384;BME280;63511;49.346;8.798;2022-09-30T15:15:55;99711.94;;;18.35;52.70
61384;BME280;63511;49.346;8.798;2022-09-30T15:21:04;99720.00;;;18.50;54.21
61384;BME280;63511;49.346;8.798;2022-09-30T15:23:34;99713.88;;;18.44;55.35
61384;BME280;63511;49.346;8.798;2022-09-30T15:26:01;99720.34;;;18.00;54.10
61384;BME280;63511;49.346;8.798;2022-09-30T15:28:26;99723.63;;;18.25;55.04
61384;BME280;63511;49.346;8.798;2022-09-30T15:30:56;99714.72;;;18.11;54.81
61384;BME280;63511;49.346;8.798;2022-09-30T15:33:24;99721.56;;;18.12;52.56
61384;BME280;63511;49.346;8.798;2022-09-30T15:36:00;99725.41;;;18.28;54.67
61384;BME280;63511;49.346;8.798;2022-09-30T15:38:27;99723.16;;;18.09;54.45
61384;BME280;63511;49.346;8.798;2022-09-30T15:41:04;99719.25;;;18.21;55.00
61384;BME280;63511;49.346;8.798;2022-09-30T15:43:31;99719.88;;;18.13;53.98
61384;BME280;63511;49.346;8.798;2022-09-30T15:46:15;99717.31;;;17.81;55.62
61384;BME280;63511;49.346;8.798;2022-09-30T15:48:43;99719.09;;;18.15;55.97
61384;BME280;63511;49.346;8.798;2022-09-30T15:53:52;99716.63;;;18.18;56.17
61384;BME280;63511;49.346;8.798;2022-09-30T15:56:33;99722.75;;;17.94;56.44
61384;BME280;63511;49.346;8.798;2022-09-30T15:59:06;99716.88;;;17.96;58.02
61384;BME280;63511;49.346;8.798;2022-09-30T16:01:38;99714.69;;;17.80;57.02
61384;BME280;63511;49.346;8.798;2022-09-30T16:04:08;99714.00;;;17.86;58.84
61384;BME280;63511;49.346;8.798;2022-09-30T16:11:57;99714.47;;;17.44;61.54
61384;BME280;63511;49.346;8.798;2022-09-30T16:14:26;99719.25;;;17.60;61.23
61384;BME280;63511;49.346;8.798;2022-09-30T16:16:55;99712.59;;;17.65;62.83
61384;BME280;63511;49.346;8.798;2022-09-30T16:19:22;99711.31;;;17.53;62.21
61384;BME280;63511;49.346;8.798;2022-09-30T16:21:50;99717.91;;;17.45;62.26
61384;BME280;63511;49.346;8.798;2022-09-30T16:26:48;99726.66;;;17.26;63.61
61384;BME280;63511;49.346;8.798;2022-09-30T16:29:15;99729.75;;;17.16;65.52
61384;BME280;63511;49.346;8.798;2022-09-30T16:31:47;99724.72;;;17.17;65.95
61384;BME280;63511;49.346;8.798;2022-09-30T16:34:27;99728.28;;;17.22;65.35
61384;BME280;63511;49.346;8.798;2022-09-30T16:36:54;99730.81;;;16.95;67.62
61384;BME280;63511;49.346;8.798;2022-09-30T16:39:25;99727.84;;;17.09;66.82
61384;BME280;63511;49.346;8.798;2022-09-30T16:41:50;99726.59;;;16.96;68.57